Time;durP1;ratioP1;P1;durP2;ratioP2;P2;SDS_P1;SDS_P2;PMS_P1;PMS_P2;Temp;Humidity;BMP_temperature;BMP_pressure;BME280_temperature;BME280_humidity;BME280_pressure;Samples;Min_cycle;Max_cycle;Signal;HPM_P1;HPM_P2
2023/02/21 02:14:34;;;;;;;1.27;0.80;;;;;;;;;;4955235;28;20489;-46
2023/02/21 02:17:09;;;;;;;1.40;0.63;;;;;;;;;;4960915;28;20066;-47
2023/02/21 02:19:52;;;;;;;1.42;0.82;;;;;;;;;;4960184;28;20035;-46
2023/02/21 02:22:29;;;;;;;1.08;0.60;;;;;;;;;;4958939;28;20468;-47
2023/02/21 02:25:14;;;;;;;2.05;0.88;;;;;;;;;;4961471;28;20391;-47
2023/02/21 02:27:40;;;;;;;0.90;0.70;;;;;;;;;;4958214;28;20028;-47
2023/02/21 02:30:36;;;;;;;0.98;0.68;;;;;;;;;;4965827;28;20034;-47
2023/02/21 02:33:02;;;;;;;0.80;0.50;;;;;;;;;;4959051;28;20027;-47
2023/02/21 02:35:31;;;;;;;1.10;0.82;;;;;;;;;;4961245;28;20082;-47
2023/02/21 02:38:06;;;;;;;1.48;0.75;;;;;;;;;;4963854;28;20039;-46
2023/02/21 02:40:32;;;;;;;0.90;0.60;;;;;;;;;;4956771;28;20118;-50
2023/02/21 02:42:58;;;;;;;1.15;0.63;;;;;;;;;;4964992;28;20102;-47
2023/02/21 02:45:24;;;;;;;1.00;0.70;;;;;;;;;;4962292;28;20030;-48
2023/02/21 02:47:53;;;;;;;1.80;0.95;;;;;;;;;;4964077;28;20039;-47
2023/02/21 02:50:21;;;;;;;1.13;0.60;;;;;;;;;;4949017;28;20040;-48
2023/02/21 02:52:54;;;;;;;1.55;0.85;;;;;;;;;;4949265;28;20027;-49
2023/02/21 02:55:23;;;;;;;0.90;0.68;;;;;;;;;;4955906;28;20047;-49
2023/02/21 02:57:50;;;;;;;0.98;0.73;;;;;;;;;;4958215;28;20455;-46
2023/02/21 03:00:17;;;;;;;0.98;0.63;;;;;;;;;;4955510;28;20030;-47
2023/02/21 03:03:10;;;;;;;1.45;0.70;;;;;;;;;;4959432;28;20555;-46
2023/02/21 03:05:54;;;;;;;1.48;0.73;;;;;;;;;;4966930;28;20472;-48
2023/02/21 03:08:23;;;;;;;1.58;1.17;;;;;;;;;;4963932;28;20043;-51
2023/02/21 03:10:49;;;;;;;1.77;0.88;;;;;;;;;;4960893;28;20105;-50
2023/02/21 03:13:28;;;;;;;2.88;0.80;;;;;;;;;;4956478;28;20039;-51
2023/02/21 03:15:56;;;;;;;1.00;0.93;;;;;;;;;;4962406;28;20471;-49
2023/02/21 03:18:28;;;;;;;1.17;0.75;;;;;;;;;;4964553;28;20038;-52
2023/02/21 03:20:56;;;;;;;0.93;0.75;;;;;;;;;;4965309;28;20483;-51
2023/02/21 03:23:24;;;;;;;0.90;0.52;;;;;;;;;;4970188;28;20115;-51
2023/02/21 03:25:50;;;;;;;1.40;0.70;;;;;;;;;;4966101;28;20031;-47
2023/02/21 03:28:17;;;;;;;1.48;0.85;;;;;;;;;;4959866;28;20074;-49
2023/02/21 03:30:44;;;;;;;1.08;0.80;;;;;;;;;;4955610;28;20035;-47
2023/02/21 03:33:10;;;;;;;2.85;1.00;;;;;;;;;;4959704;28;20062;-48
2023/02/21 03:35:36;;;;;;;1.42;0.70;;;;;;;;;;4954411;28;20531;-47
2023/02/21 03:38:02;;;;;;;2.88;1.30;;;;;;;;;;4959140;28;20077;-46
2023/02/21 03:40:30;;;;;;;1.27;0.70;;;;;;;;;;4955364;28;20027;-46
2023/02/21 03:42:56;;;;;;;1.10;0.70;;;;;;;;;;4955730;28;20333;-47
2023/02/21 03:45:23;;;;;;;0.85;0.70;;;;;;;;;;4957128;28;20368;-47
2023/02/21 03:47:49;;;;;;;1.65;0.75;;;;;;;;;;4960373;28;20376;-47
2023/02/21 03:50:15;;;;;;;0.88;0.60;;;;;;;;;;4958872;28;20046;-45
2023/02/21 03:52:41;;;;;;;0.98;0.65;;;;;;;;;;4959827;28;20098;-50
2023/02/21 03:55:08;;;;;;;1.52;0.80;;;;;;;;;;4963910;28;20033;-53
2023/02/21 03:57:34;;;;;;;2.22;0.88;;;;;;;;;;4961270;28;20074;-50
2023/02/21 04:00:00;;;;;;;1.35;0.60;;;;;;;;;;4962316;28;20265;-53
2023/02/21 04:02:26;;;;;;;1.27;0.80;;;;;;;;;;4960397;28;20158;-52
2023/02/21 04:04:52;;;;;;;1.13;0.75;;;;;;;;;;4955603;28;20027;-52
2023/02/21 04:07:19;;;;;;;0.98;0.70;;;;;;;;;;4960809;28;20027;-50
2023/02/21 04:09:45;;;;;;;1.10;0.80;;;;;;;;;;4949340;28;20039;-52
2023/02/21 04:12:12;;;;;;;1.25;0.85;;;;;;;;;;4959004;28;20174;-48
2023/02/21 04:14:37;;;;;;;2.05;0.70;;;;;;;;;;4954590;28;20035;-51
2023/02/21 04:17:04;;;;;;;1.45;0.80;;;;;;;;;;4972471;28;20893;-46
2023/02/21 04:19:30;;;;;;;1.20;0.70;;;;;;;;;;4955280;28;20104;-49
2023/02/21 04:21:56;;;;;;;1.00;0.80;;;;;;;;;;4947662;29;20038;-48
2023/02/21 04:24:22;;;;;;;1.00;0.60;;;;;;;;;;4947999;28;20023;-48
2023/02/21 04:26:48;;;;;;;1.23;0.85;;;;;;;;;;4951468;28;20027;-47
2023/02/21 04:29:14;;;;;;;1.38;0.80;;;;;;;;;;4960824;28;20553;-47
2023/02/21 04:31:40;;;;;;;1.60;0.80;;;;;;;;;;4958527;28;20106;-49
2023/02/21 04:34:06;;;;;;;1.35;0.80;;;;;;;;;;4953534;28;20130;-47
2023/02/21 04:36:32;;;;;;;1.50;0.68;;;;;;;;;;4956518;28;20034;-48
2023/02/21 04:38:58;;;;;;;1.77;1.00;;;;;;;;;;4961570;28;20086;-48
2023/02/21 04:41:24;;;;;;;2.13;0.77;;;;;;;;;;4956749;28;20461;-49
2023/02/21 04:43:51;;;;;;;1.00;0.70;;;;;;;;;;4945477;28;20028;-47
2023/02/21 04:46:18;;;;;;;1.25;0.75;;;;;;;;;;4958685;28;20349;-47
2023/02/21 04:48:44;;;;;;;1.77;0.70;;;;;;;;;;4949303;28;20023;-47
2023/02/21 04:51:12;;;;;;;1.17;0.73;;;;;;;;;;4957268;28;20473;-48
2023/02/21 04:53:38;;;;;;;1.35;0.73;;;;;;;;;;4953822;28;20049;-47
2023/02/21 04:56:04;;;;;;;0.90;0.80;;;;;;;;;;4954680;28;20134;-47
2023/02/21 04:58:30;;;;;;;2.13;1.17;;;;;;;;;;4955366;28;20019;-47
2023/02/21 05:00:56;;;;;;;1.25;0.80;;;;;;;;;;4952832;28;20465;-45
2023/02/21 05:03:23;;;;;;;1.60;0.95;;;;;;;;;;4954882;28;20034;-48
2023/02/21 05:05:49;;;;;;;1.20;0.85;;;;;;;;;;4955026;28;20488;-49
2023/02/21 05:08:15;;;;;;;1.48;0.70;;;;;;;;;;4954081;29;20042;-48
2023/02/21 05:10:41;;;;;;;1.23;0.98;;;;;;;;;;4952937;29;20031;-47
2023/02/21 05:13:07;;;;;;;1.50;0.80;;;;;;;;;;4958884;28;20407;-47
2023/02/21 05:15:33;;;;;;;1.67;0.93;;;;;;;;;;4972088;28;20035;-48
2023/02/21 05:17:59;;;;;;;1.60;0.90;;;;;;;;;;4972561;28;20058;-48
2023/02/21 05:20:25;;;;;;;1.30;1.00;;;;;;;;;;4971925;28;20023;-47
2023/02/21 05:22:51;;;;;;;2.42;0.90;;;;;;;;;;4972423;28;20029;-48
2023/02/21 05:25:18;;;;;;;1.70;1.15;;;;;;;;;;4969411;28;20031;-47
2023/02/21 05:27:45;;;;;;;1.48;1.15;;;;;;;;;;4969241;28;20725;-46
2023/02/21 05:30:11;;;;;;;1.65;0.90;;;;;;;;;;4968681;28;20038;-52
2023/02/21 05:32:37;;;;;;;1.35;0.80;;;;;;;;;;4968773;28;20120;-49
2023/02/21 05:35:04;;;;;;;1.50;0.85;;;;;;;;;;4969523;28;20031;-48
2023/02/21 05:37:29;;;;;;;2.63;1.10;;;;;;;;;;4969965;28;20047;-47
2023/02/21 05:39:55;;;;;;;1.40;1.00;;;;;;;;;;4968382;28;20058;-47
2023/02/21 05:42:21;;;;;;;1.50;1.13;;;;;;;;;;4966474;28;20041;-51
2023/02/21 05:44:47;;;;;;;1.77;0.82;;;;;;;;;;4970963;28;20500;-48
2023/02/21 05:47:14;;;;;;;1.33;0.65;;;;;;;;;;4967229;28;20027;-47
2023/02/21 05:49:40;;;;;;;1.60;0.80;;;;;;;;;;4967987;28;20114;-45
2023/02/21 05:52:07;;;;;;;1.38;0.90;;;;;;;;;;4967854;28;20033;-47
2023/02/21 05:54:33;;;;;;;1.77;1.15;;;;;;;;;;4965577;28;20030;-51
2023/02/21 05:56:59;;;;;;;1.00;0.90;;;;;;;;;;4971083;28;20054;-46
2023/02/21 05:59:25;;;;;;;1.75;1.05;;;;;;;;;;4970294;28;20515;-51
2023/02/21 06:01:51;;;;;;;1.50;1.00;;;;;;;;;;4970024;28;20033;-45
2023/02/21 06:04:17;;;;;;;1.35;0.82;;;;;;;;;;4971716;28;20027;-46
2023/02/21 06:06:43;;;;;;;1.80;1.00;;;;;;;;;;4971803;28;20030;-48
2023/02/21 06:09:10;;;;;;;1.45;1.00;;;;;;;;;;4971621;28;20037;-46
2023/02/21 06:11:37;;;;;;;3.38;1.30;;;;;;;;;;4972190;28;20038;-48
2023/02/21 06:14:04;;;;;;;1.70;1.08;;;;;;;;;;4970795;28;20132;-46
2023/02/21 06:16:34;;;;;;;2.78;1.00;;;;;;;;;;4969530;28;21589;-46
2023/02/21 06:19:00;;;;;;;1.83;1.17;;;;;;;;;;4964351;28;20046;-51
2023/02/21 06:21:26;;;;;;;5.07;0.88;;;;;;;;;;4971199;28;20043;-49
2023/02/21 06:23:52;;;;;;;2.63;1.00;;;;;;;;;;4970203;28;20046;-50
2023/02/21 06:26:19;;;;;;;1.90;1.05;;;;;;;;;;4971721;28;20027;-49
2023/02/21 06:28:45;;;;;;;1.95;1.02;;;;;;;;;;4970784;28;20034;-46
2023/02/21 06:31:11;;;;;;;2.22;1.65;;;;;;;;;;4971986;28;20034;-48
2023/02/21 06:33:37;;;;;;;2.40;1.20;;;;;;;;;;4964099;28;20023;-50
2023/02/21 06:36:08;;;;;;;0.82;0.73;;;;;;;;;;4970190;28;20027;-45
2023/02/21 06:38:34;;;;;;;2.85;0.95;;;;;;;;;;4971147;28;20559;-45
2023/02/21 06:41:04;;;;;;;3.80;0.85;;;;;;;;;;4970027;28;20535;-46
2023/02/21 06:43:30;;;;;;;1.55;1.10;;;;;;;;;;4971901;28;20143;-46
2023/02/21 06:45:56;;;;;;;2.45;1.27;;;;;;;;;;4970881;28;20043;-46
2023/02/21 06:48:22;;;;;;;1.55;1.10;;;;;;;;;;4971430;28;20029;-46
2023/02/21 06:50:48;;;;;;;3.38;0.90;;;;;;;;;;4970800;28;20035;-47
2023/02/21 06:53:14;;;;;;;2.70;1.10;;;;;;;;;;4975067;28;20031;-46
2023/02/21 06:55:40;;;;;;;3.17;1.08;;;;;;;;;;4974454;28;20475;-46
2023/02/21 06:58:06;;;;;;;2.72;1.00;;;;;;;;;;4974305;28;20063;-47
2023/02/21 07:00:32;;;;;;;2.20;1.30;;;;;;;;;;4974241;28;20042;-46
2023/02/21 07:02:58;;;;;;;2.55;1.42;;;;;;;;;;4974712;28;20026;-47
2023/02/21 07:05:24;;;;;;;1.42;0.98;;;;;;;;;;4974604;28;20035;-46
2023/02/21 07:07:50;;;;;;;2.17;1.20;;;;;;;;;;4974489;28;20030;-47
2023/02/21 07:10:16;;;;;;;3.00;1.63;;;;;;;;;;4973466;28;20037;-47
2023/02/21 07:12:42;;;;;;;1.92;1.10;;;;;;;;;;4964531;28;20126;-48
2023/02/21 07:15:09;;;;;;;2.15;1.10;;;;;;;;;;4965898;28;20110;-47
2023/02/21 07:17:34;;;;;;;2.53;1.55;;;;;;;;;;4972117;28;20027;-48
2023/02/21 07:20:01;;;;;;;2.25;1.23;;;;;;;;;;4969872;28;20020;-50
2023/02/21 07:22:27;;;;;;;1.65;0.73;;;;;;;;;;4957297;28;20468;-47
2023/02/21 07:24:53;;;;;;;1.50;1.00;;;;;;;;;;4965634;28;20388;-45
2023/02/21 07:27:19;;;;;;;3.72;1.88;;;;;;;;;;4956386;28;20023;-49
2023/02/21 07:29:46;;;;;;;3.80;2.38;;;;;;;;;;4962923;28;20130;-48
2023/02/21 07:32:12;;;;;;;4.03;1.75;;;;;;;;;;4961586;28;20088;-49
2023/02/21 07:34:38;;;;;;;6.63;2.75;;;;;;;;;;4954570;28;20129;-49
2023/02/21 07:37:04;;;;;;;5.95;2.92;;;;;;;;;;4961084;28;20031;-47
2023/02/21 07:39:30;;;;;;;11.55;3.47;;;;;;;;;;4957914;28;20431;-45
2023/02/21 07:41:56;;;;;;;6.15;3.10;;;;;;;;;;4959682;28;20031;-48
2023/02/21 07:44:22;;;;;;;5.68;2.75;;;;;;;;;;4958334;28;20379;-48
2023/02/21 07:46:48;;;;;;;5.03;2.55;;;;;;;;;;4960307;28;20069;-46
2023/02/21 07:49:14;;;;;;;6.10;2.95;;;;;;;;;;4956488;28;20513;-46
2023/02/21 07:51:40;;;;;;;6.93;2.35;;;;;;;;;;4951560;28;20034;-51
2023/02/21 07:54:06;;;;;;;9.07;3.13;;;;;;;;;;4956668;28;20415;-48
2023/02/21 07:56:32;;;;;;;8.48;2.75;;;;;;;;;;4952478;28;20135;-51
2023/02/21 07:58:58;;;;;;;7.15;2.88;;;;;;;;;;4957046;28;20532;-50
2023/02/21 08:01:25;;;;;;;6.18;2.33;;;;;;;;;;4956954;28;20031;-48
2023/02/21 08:03:51;;;;;;;4.93;2.22;;;;;;;;;;4952865;28;20023;-51
2023/02/21 08:06:17;;;;;;;6.55;1.88;;;;;;;;;;4956071;28;20034;-50
2023/02/21 08:08:44;;;;;;;4.63;2.22;;;;;;;;;;4958263;28;20027;-47
2023/02/21 08:11:10;;;;;;;9.48;2.80;;;;;;;;;;4958351;28;20031;-48
2023/02/21 08:13:36;;;;;;;3.60;2.28;;;;;;;;;;4955729;28;20043;-50
2023/02/21 08:16:02;;;;;;;7.57;2.00;;;;;;;;;;4957797;28;20111;-49
2023/02/21 08:18:28;;;;;;;5.35;2.00;;;;;;;;;;4955867;28;20403;-49
2023/02/21 08:20:55;;;;;;;4.88;2.65;;;;;;;;;;4959072;28;20570;-48
2023/02/21 08:23:22;;;;;;;9.20;2.50;;;;;;;;;;4951097;28;20035;-51
2023/02/21 08:25:48;;;;;;;4.60;1.92;;;;;;;;;;4960109;28;20027;-47
2023/02/21 08:28:14;;;;;;;3.15;1.88;;;;;;;;;;4958840;28;20054;-51
2023/02/21 08:30:41;;;;;;;5.60;2.13;;;;;;;;;;4961679;28;20465;-47
2023/02/21 08:33:07;;;;;;;3.15;2.03;;;;;;;;;;4954044;28;20098;-48
2023/02/21 08:35:33;;;;;;;4.18;2.00;;;;;;;;;;4958136;28;20495;-50
2023/02/21 08:38:02;;;;;;;4.25;2.10;;;;;;;;;;4953680;28;20035;-49
2023/02/21 08:40:29;;;;;;;5.63;2.33;;;;;;;;;;4957212;28;20547;-52
2023/02/21 08:42:56;;;;;;;4.82;2.60;;;;;;;;;;4953230;28;20042;-51
2023/02/21 08:45:23;;;;;;;3.35;2.00;;;;;;;;;;4952981;28;20022;-47
2023/02/21 08:47:50;;;;;;;3.42;1.80;;;;;;;;;;4958967;28;20157;-49
2023/02/21 08:50:16;;;;;;;2.60;1.58;;;;;;;;;;4954338;28;20066;-49
2023/02/21 08:52:42;;;;;;;3.97;1.73;;;;;;;;;;4947509;28;20027;-47
2023/02/21 08:55:08;;;;;;;3.47;2.08;;;;;;;;;;4953700;28;20039;-47
2023/02/21 08:57:34;;;;;;;5.90;1.90;;;;;;;;;;4950656;29;20031;-47
2023/02/21 09:00:00;;;;;;;4.30;1.85;;;;;;;;;;4949219;28;20039;-48
2023/02/21 09:02:31;;;;;;;2.75;1.90;;;;;;;;;;4953947;28;20055;-50
2023/02/21 09:04:58;;;;;;;5.15;2.33;;;;;;;;;;4955622;28;20174;-50
2023/02/21 09:07:25;;;;;;;2.95;1.85;;;;;;;;;;4953429;29;20232;-50
2023/02/21 09:09:50;;;;;;;8.20;2.33;;;;;;;;;;4951810;29;20031;-52
2023/02/21 09:12:17;;;;;;;3.17;1.55;;;;;;;;;;4957459;28;20058;-50
2023/02/21 09:14:43;;;;;;;5.20;2.15;;;;;;;;;;4971688;28;20015;-48
2023/02/21 09:17:11;;;;;;;2.83;1.75;;;;;;;;;;4972655;28;20093;-47
2023/02/21 09:19:37;;;;;;;3.63;2.03;;;;;;;;;;4972145;28;20131;-49
2023/02/21 09:22:03;;;;;;;3.40;1.73;;;;;;;;;;4972143;28;20089;-51
2023/02/21 09:24:30;;;;;;;5.90;1.80;;;;;;;;;;4971574;28;20023;-50
2023/02/21 09:26:57;;;;;;;4.65;2.13;;;;;;;;;;4969955;28;20463;-50
2023/02/21 09:29:24;;;;;;;4.22;1.80;;;;;;;;;;4971543;28;20038;-49
2023/02/21 09:31:50;;;;;;;4.45;2.30;;;;;;;;;;4971328;28;20097;-50
2023/02/21 09:34:16;;;;;;;2.53;1.60;;;;;;;;;;4971953;28;20041;-51
2023/02/21 09:36:42;;;;;;;3.70;2.15;;;;;;;;;;4971190;28;20038;-49
2023/02/21 09:39:08;;;;;;;4.72;2.22;;;;;;;;;;4971400;28;20097;-46
2023/02/21 09:41:35;;;;;;;2.78;1.75;;;;;;;;;;4971567;28;20396;-48
2023/02/21 09:44:02;;;;;;;4.40;1.95;;;;;;;;;;4970741;28;20075;-46
2023/02/21 09:46:33;;;;;;;3.85;1.70;;;;;;;;;;4971276;28;20027;-46
2023/02/21 09:48:58;;;;;;;8.43;2.20;;;;;;;;;;4965471;28;20057;-48
2023/02/21 09:51:25;;;;;;;11.90;2.63;;;;;;;;;;4971184;28;20464;-47
2023/02/21 09:53:53;;;;;;;7.80;2.10;;;;;;;;;;4961150;28;20030;-45
2023/02/21 09:56:33;;;;;;;14.48;2.15;;;;;;;;;;4969410;28;20031;-46
2023/02/21 09:59:00;;;;;;;10.07;2.78;;;;;;;;;;4966599;28;20057;-47
2023/02/21 10:01:26;;;;;;;9.93;2.30;;;;;;;;;;4969394;28;20527;-46
2023/02/21 10:04:15;;;;;;;7.18;2.33;;;;;;;;;;4970892;28;20030;-47
2023/02/21 10:07:01;;;;;;;4.60;1.95;;;;;;;;;;4963292;28;20074;-47
2023/02/21 10:09:47;;;;;;;4.80;1.98;;;;;;;;;;4968426;28;20027;-47
2023/02/21 10:12:13;;;;;;;6.32;2.13;;;;;;;;;;4930521;28;20051;-48
2023/02/21 10:14:58;;;;;;;13.48;2.95;;;;;;;;;;4971680;28;20026;-50
2023/02/21 10:17:26;;;;;;;3.22;1.50;;;;;;;;;;4970737;28;20034;-50
2023/02/21 10:19:54;;;;;;;6.40;1.90;;;;;;;;;;4969828;28;20041;-46
2023/02/21 10:22:23;;;;;;;6.68;1.70;;;;;;;;;;4971438;28;20023;-48
2023/02/21 10:24:49;;;;;;;10.55;2.10;;;;;;;;;;4970018;28;20480;-47
2023/02/21 10:27:20;;;;;;;4.20;1.77;;;;;;;;;;4973530;28;20376;-51
2023/02/21 10:29:54;;;;;;;2.83;1.90;;;;;;;;;;4968007;28;20038;-49
2023/02/21 10:32:20;;;;;;;10.35;2.00;;;;;;;;;;4974877;28;20468;-49
2023/02/21 10:34:47;;;;;;;4.82;1.90;;;;;;;;;;4974160;28;20402;-48
2023/02/21 10:37:22;;;;;;;4.15;1.60;;;;;;;;;;4974876;28;20498;-47
2023/02/21 10:39:50;;;;;;;5.18;1.70;;;;;;;;;;4973336;28;20035;-51
2023/02/21 10:42:36;;;;;;;4.32;1.48;;;;;;;;;;4974841;28;20029;-48
2023/02/21 10:45:02;;;;;;;6.30;2.45;;;;;;;;;;4974178;28;20050;-48
2023/02/21 10:47:33;;;;;;;5.15;1.60;;;;;;;;;;4975207;28;20054;-47
2023/02/21 10:50:01;;;;;;;4.68;1.60;;;;;;;;;;4973784;28;20113;-48
2023/02/21 10:52:27;;;;;;;4.22;1.40;;;;;;;;;;4974885;28;20019;-49
2023/02/21 10:55:08;;;;;;;3.58;1.15;;;;;;;;;;4972760;28;20034;-50
2023/02/21 10:57:38;;;;;;;4.25;1.52;;;;;;;;;;4967619;28;20106;-48
2023/02/21 11:00:09;;;;;;;3.42;1.20;;;;;;;;;;4973497;28;20059;-46
2023/02/21 11:02:38;;;;;;;2.58;1.38;;;;;;;;;;4973193;28;20027;-48
2023/02/21 11:05:23;;;;;;;4.60;1.60;;;;;;;;;;4973571;28;20085;-48
2023/02/21 11:08:05;;;;;;;3.70;1.25;;;;;;;;;;4974321;28;20492;-48
2023/02/21 11:10:31;;;;;;;4.53;1.50;;;;;;;;;;4964152;28;20022;-47
2023/02/21 11:13:01;;;;;;;3.13;1.30;;;;;;;;;;4964760;28;20060;-49
2023/02/21 11:15:27;;;;;;;2.08;1.20;;;;;;;;;;4947338;29;20050;-50
2023/02/21 11:18:05;;;;;;;2.45;1.30;;;;;;;;;;4954994;29;20023;-49
2023/02/21 11:20:32;;;;;;;2.33;1.20;;;;;;;;;;4955376;29;20030;-48
2023/02/21 11:22:58;;;;;;;2.35;1.30;;;;;;;;;;4953348;29;20077;-51
2023/02/21 11:25:27;;;;;;;1.80;1.27;;;;;;;;;;4963734;28;20396;-46
2023/02/21 11:28:01;;;;;;;2.75;1.42;;;;;;;;;;4965809;28;20061;-49
2023/02/21 11:30:28;;;;;;;2.97;1.25;;;;;;;;;;4966693;28;20046;-48
2023/02/21 11:32:55;;;;;;;1.95;1.30;;;;;;;;;;4965940;28;20415;-49
2023/02/21 11:35:23;;;;;;;1.92;1.13;;;;;;;;;;4963379;28;20026;-48
2023/02/21 11:37:51;;;;;;;3.70;1.67;;;;;;;;;;4956871;28;20384;-48
2023/02/21 11:40:23;;;;;;;2.45;1.30;;;;;;;;;;4957455;28;20038;-51
2023/02/21 11:42:49;;;;;;;2.70;1.38;;;;;;;;;;4961675;28;20101;-47
2023/02/21 11:45:21;;;;;;;2.78;1.33;;;;;;;;;;4957647;28;20027;-51
2023/02/21 11:47:56;;;;;;;2.83;1.30;;;;;;;;;;4954689;28;20070;-48
2023/02/21 11:50:27;;;;;;;4.07;1.33;;;;;;;;;;4952805;29;20476;-49
2023/02/21 11:53:16;;;;;;;3.10;1.30;;;;;;;;;;4963721;28;20031;-49
2023/02/21 11:55:49;;;;;;;4.20;1.40;;;;;;;;;;4946586;28;20040;-47
2023/02/21 11:58:21;;;;;;;2.90;1.88;;;;;;;;;;4963276;28;20027;-48
2023/02/21 12:01:04;;;;;;;1.35;1.00;;;;;;;;;;4960548;28;20049;-48
2023/02/21 12:03:30;;;;;;;1.52;0.90;;;;;;;;;;4957934;28;20114;-49
2023/02/21 12:05:56;;;;;;;1.95;1.35;;;;;;;;;;4957789;28;20503;-48
2023/02/21 12:08:22;;;;;;;2.72;1.40;;;;;;;;;;4955004;29;20050;-51
2023/02/21 12:10:54;;;;;;;2.05;1.20;;;;;;;;;;4958518;28;20097;-46
2023/02/21 12:13:39;;;;;;;2.15;1.20;;;;;;;;;;4964736;28;20059;-51
2023/02/21 12:16:31;;;;;;;2.25;1.25;;;;;;;;;;4973185;28;20035;-50
2023/02/21 12:18:57;;;;;;;4.07;1.27;;;;;;;;;;4954071;28;20030;-52
2023/02/21 12:21:41;;;;;;;2.30;1.58;;;;;;;;;;4974031;28;20592;-51
2023/02/21 12:24:10;;;;;;;2.83;1.58;;;;;;;;;;4973218;28;20049;-52
2023/02/21 12:26:39;;;;;;;2.22;1.15;;;;;;;;;;4973106;28;20460;-51
2023/02/21 12:29:20;;;;;;;3.05;1.20;;;;;;;;;;4971780;28;20027;-51
2023/02/21 12:31:57;;;;;;;2.40;1.10;;;;;;;;;;4969984;28;20037;-47
2023/02/21 12:34:38;;;;;;;2.67;1.20;;;;;;;;;;4975331;28;20019;-48
2023/02/21 12:37:18;;;;;;;3.90;1.07;;;;;;;;;;4971183;28;20030;-48
2023/02/21 12:39:47;;;;;;;2.15;0.88;;;;;;;;;;4968613;28;20397;-47
2023/02/21 12:42:13;;;;;;;2.67;1.08;;;;;;;;;;4972659;28;20030;-47
2023/02/21 12:44:53;;;;;;;1.40;1.00;;;;;;;;;;4972150;28;20353;-48
2023/02/21 12:47:26;;;;;;;1.80;1.33;;;;;;;;;;4972704;28;20110;-48
2023/02/21 12:50:01;;;;;;;2.08;1.30;;;;;;;;;;4971563;28;20416;-47
2023/02/21 12:52:27;;;;;;;3.25;1.05;;;;;;;;;;4971283;28;20063;-49
2023/02/21 12:55:02;;;;;;;1.75;0.95;;;;;;;;;;4971066;28;20081;-47
2023/02/21 12:57:33;;;;;;;2.97;1.38;;;;;;;;;;4972463;28;20388;-49
2023/02/21 13:00:11;;;;;;;1.48;1.10;;;;;;;;;;4969269;28;20081;-48
2023/02/21 13:02:43;;;;;;;2.10;1.30;;;;;;;;;;4972585;28;20059;-47
2023/02/21 13:05:12;;;;;;;1.77;1.17;;;;;;;;;;4971481;28;20554;-51
2023/02/21 13:07:43;;;;;;;2.85;1.10;;;;;;;;;;4973197;28;20031;-48
2023/02/21 13:10:18;;;;;;;4.45;1.05;;;;;;;;;;4971966;28;20038;-47
2023/02/21 13:12:55;;;;;;;1.67;1.02;;;;;;;;;;4968294;28;20459;-47
2023/02/21 13:15:24;;;;;;;4.78;1.10;;;;;;;;;;4953258;28;20090;-47
2023/02/21 13:17:56;;;;;;;2.38;1.10;;;;;;;;;;4967948;28;20487;-50
2023/02/21 13:20:23;;;;;;;1.65;1.08;;;;;;;;;;4966376;28;20027;-49
2023/02/21 13:25:52;;;;;;;2.55;1.25;;;;;;;;;;4956133;28;20072;-49
2023/02/21 13:28:22;;;;;;;3.92;1.00;;;;;;;;;;4952980;28;20441;-48
2023/02/21 13:30:50;;;;;;;1.65;1.00;;;;;;;;;;4953143;28;20046;-50
2023/02/21 13:33:24;;;;;;;3.13;1.00;;;;;;;;;;4952655;29;20086;-49
2023/02/21 13:35:50;;;;;;;1.90;1.10;;;;;;;;;;4956911;28;20479;-48
2023/02/21 13:38:18;;;;;;;1.92;1.40;;;;;;;;;;4954743;28;20031;-48
2023/02/21 13:40:49;;;;;;;1.65;1.00;;;;;;;;;;4959226;28;20453;-49
2023/02/21 13:43:20;;;;;;;1.33;0.90;;;;;;;;;;4952422;28;20082;-48
2023/02/21 13:45:46;;;;;;;1.65;1.10;;;;;;;;;;4954127;28;20023;-51
2023/02/21 13:48:19;;;;;;;1.98;0.85;;;;;;;;;;4953734;28;20051;-50
2023/02/21 13:50:47;;;;;;;1.67;0.98;;;;;;;;;;4957036;28;20035;-52
2023/02/21 13:53:13;;;;;;;1.75;0.88;;;;;;;;;;4960707;28;20023;-49
2023/02/21 13:55:39;;;;;;;2.05;1.17;;;;;;;;;;4955170;28;20021;-47
2023/02/21 13:58:06;;;;;;;1.65;1.00;;;;;;;;;;4959060;28;20030;-48
2023/02/21 14:00:32;;;;;;;1.80;1.00;;;;;;;;;;4958029;28;20031;-48
2023/02/21 14:03:23;;;;;;;2.15;1.40;;;;;;;;;;4958200;28;20053;-47
2023/02/21 14:05:50;;;;;;;1.27;0.95;;;;;;;;;;4956523;28;20051;-50
2023/02/21 14:08:18;;;;;;;1.58;1.15;;;;;;;;;;4961617;28;20019;-48
2023/02/21 14:10:49;;;;;;;1.35;1.00;;;;;;;;;;4959206;28;20090;-50
2023/02/21 14:13:20;;;;;;;1.55;0.90;;;;;;;;;;4967637;28;20117;-48
2023/02/21 14:15:47;;;;;;;1.83;0.90;;;;;;;;;;4974228;28;20085;-49
2023/02/21 14:18:15;;;;;;;1.35;0.80;;;;;;;;;;4975396;28;20038;-48
2023/02/21 14:20:44;;;;;;;1.90;1.27;;;;;;;;;;4974840;28;20476;-47
2023/02/21 14:23:16;;;;;;;1.52;0.98;;;;;;;;;;4968624;28;20387;-50
2023/02/21 14:25:42;;;;;;;2.28;0.80;;;;;;;;;;4974621;28;20146;-47
2023/02/21 14:28:26;;;;;;;1.50;0.80;;;;;;;;;;4975104;28;20102;-47
2023/02/21 14:31:01;;;;;;;1.50;0.85;;;;;;;;;;4974081;28;20078;-50
2023/02/21 14:33:29;;;;;;;1.55;1.00;;;;;;;;;;4971286;28;20027;-47
2023/02/21 14:36:04;;;;;;;1.40;0.93;;;;;;;;;;4974033;28;20134;-48
2023/02/21 14:38:35;;;;;;;1.27;0.60;;;;;;;;;;4975555;28;20035;-49
2023/02/21 14:41:08;;;;;;;5.80;0.80;;;;;;;;;;4974484;28;20039;-47
2023/02/21 14:43:52;;;;;;;2.15;0.80;;;;;;;;;;4975985;28;20419;-47
2023/02/21 14:46:18;;;;;;;1.60;0.70;;;;;;;;;;4975269;28;20033;-51
2023/02/21 14:49:03;;;;;;;1.35;0.90;;;;;;;;;;4973045;28;20035;-48
2023/02/21 14:51:29;;;;;;;1.33;1.00;;;;;;;;;;4968829;28;20436;-47
2023/02/21 14:54:03;;;;;;;1.80;0.80;;;;;;;;;;4974210;28;20037;-49
2023/02/21 14:56:29;;;;;;;3.25;0.90;;;;;;;;;;4975517;28;20058;-48
2023/02/21 14:58:55;;;;;;;2.92;1.00;;;;;;;;;;4973157;28;20061;-50
2023/02/21 15:01:32;;;;;;;2.92;1.48;;;;;;;;;;4974702;28;20027;-49
2023/02/21 15:04:12;;;;;;;3.65;0.90;;;;;;;;;;4956760;28;20117;-48
2023/02/21 15:06:40;;;;;;;2.65;1.17;;;;;;;;;;4970335;28;20019;-48
2023/02/21 15:09:32;;;;;;;3.50;1.05;;;;;;;;;;4973751;28;20168;-48
2023/02/21 15:11:58;;;;;;;;;;;;;;;;;;4972035;28;20062;-48
2023/02/21 15:14:26;;;;;;;2.03;1.05;;;;;;;;;;4974858;28;20347;-51
2023/02/21 15:16:57;;;;;;;1.25;0.80;;;;;;;;;;4974116;28;20080;-49
2023/02/21 15:19:27;;;;;;;2.33;0.80;;;;;;;;;;4974324;28;20015;-50
2023/02/21 15:22:12;;;;;;;3.88;1.23;;;;;;;;;;4973992;28;20026;-49
2023/02/21 15:24:38;;;;;;;1.88;0.80;;;;;;;;;;4970375;28;20035;-47
2023/02/21 15:27:13;;;;;;;1.95;1.33;;;;;;;;;;4973414;28;20030;-47
2023/02/21 15:29:40;;;;;;;2.13;0.90;;;;;;;;;;4973681;28;20062;-51
2023/02/21 15:32:06;;;;;;;1.02;0.68;;;;;;;;;;4972290;28;20046;-48
2023/02/21 15:34:40;;;;;;;3.72;0.82;;;;;;;;;;4973627;28;20022;-49
2023/02/21 15:37:18;;;;;;;4.65;1.23;;;;;;;;;;4972614;28;20092;-47
2023/02/21 15:39:48;;;;;;;4.28;1.63;;;;;;;;;;4966508;28;20039;-47
2023/02/21 15:42:15;;;;;;;1.65;1.00;;;;;;;;;;4971726;28;20066;-49
2023/02/21 15:44:45;;;;;;;1.67;1.17;;;;;;;;;;4971639;28;20035;-48
2023/02/21 15:47:13;;;;;;;3.33;1.38;;;;;;;;;;4969449;28;20442;-48
2023/02/21 15:49:46;;;;;;;3.22;0.88;;;;;;;;;;4967278;28;20073;-47
2023/02/21 15:52:31;;;;;;;1.23;0.82;;;;;;;;;;4968468;28;20035;-49
2023/02/21 15:55:14;;;;;;;2.63;1.13;;;;;;;;;;4969367;28;20495;-47
2023/02/21 15:57:40;;;;;;;2.00;1.40;;;;;;;;;;4972985;28;20473;-47
2023/02/21 16:00:25;;;;;;;3.65;0.90;;;;;;;;;;4970612;28;20038;-50
2023/02/21 16:02:52;;;;;;;4.50;1.00;;;;;;;;;;4969231;28;20081;-52
2023/02/21 16:05:28;;;;;;;6.43;1.48;;;;;;;;;;4971559;28;20049;-51
2023/02/21 16:07:59;;;;;;;2.30;0.90;;;;;;;;;;4970900;28;20055;-49
2023/02/21 16:10:25;;;;;;;1.05;0.60;;;;;;;;;;4968391;28;20047;-47
2023/02/21 16:12:59;;;;;;;2.25;0.85;;;;;;;;;;4969733;28;20050;-48
2023/02/21 16:15:27;;;;;;;3.25;1.05;;;;;;;;;;4975406;28;20059;-48
2023/02/21 16:17:55;;;;;;;1.77;0.88;;;;;;;;;;4971358;28;20031;-49
2023/02/21 16:20:24;;;;;;;1.90;1.00;;;;;;;;;;4970929;28;20118;-47
2023/02/21 16:23:10;;;;;;;2.83;0.98;;;;;;;;;;4971584;28;20031;-48
2023/02/21 16:25:53;;;;;;;1.75;0.90;;;;;;;;;;4969646;28;20045;-50
2023/02/21 16:28:19;;;;;;;1.83;0.90;;;;;;;;;;4971753;28;20042;-50
2023/02/21 16:30:45;;;;;;;2.85;0.80;;;;;;;;;;4970674;28;20051;-50
2023/02/21 16:33:14;;;;;;;1.95;0.95;;;;;;;;;;4972674;28;20049;-48
2023/02/21 16:35:41;;;;;;;2.55;0.98;;;;;;;;;;4970317;28;20038;-49
2023/02/21 16:38:10;;;;;;;1.52;0.73;;;;;;;;;;4971488;28;20031;-49
2023/02/21 16:40:36;;;;;;;2.72;1.10;;;;;;;;;;4970060;28;20035;-50
2023/02/21 16:43:03;;;;;;;2.65;1.35;;;;;;;;;;4971045;28;20285;-51
2023/02/21 16:45:30;;;;;;;2.65;0.57;;;;;;;;;;4971248;28;20086;-47
2023/02/21 16:48:00;;;;;;;1.70;1.00;;;;;;;;;;4967462;28;20026;-49
2023/02/21 16:50:32;;;;;;;1.98;0.93;;;;;;;;;;4970295;28;20038;-49
2023/02/21 16:52:58;;;;;;;;;;;;;;;;;;4971180;28;20090;-49
2023/02/21 16:55:24;;;;;;;2.40;1.52;;;;;;;;;;4969855;28;19985;-46
2023/02/21 16:57:51;;;;;;;2.40;1.33;;;;;;;;;;4971123;28;20023;-48
2023/02/21 17:00:20;;;;;;;2.45;1.20;;;;;;;;;;4970691;28;20038;-52
2023/02/21 17:02:46;;;;;;;1.33;0.70;;;;;;;;;;4970661;28;20015;-50
2023/02/21 17:05:12;;;;;;;1.30;0.80;;;;;;;;;;4968872;28;20042;-47
2023/02/21 17:07:38;;;;;;;1.85;1.20;;;;;;;;;;4970106;28;21473;-47
2023/02/21 17:10:04;;;;;;;2.97;0.90;;;;;;;;;;4968003;28;20231;-48
2023/02/21 17:12:32;;;;;;;1.80;1.00;;;;;;;;;;4973303;28;20137;-47